createdAt,value
2023-02-23T00:00:50.393Z,100916.09
2023-02-23T00:03:55.128Z,100923.41
2023-02-23T00:06:56.704Z,100915.66
2023-02-23T00:09:58.299Z,100911.56
2023-02-23T00:13:00.975Z,100917.13
2023-02-23T00:16:08.833Z,100912.94
2023-02-23T00:19:10.629Z,100918.47
2023-02-23T00:22:12.785Z,100927.31
2023-02-23T00:25:15.233Z,100918.59
2023-02-23T00:28:16.790Z,100919.66
2023-02-23T00:31:18.840Z,100925.13
2023-02-23T00:34:21.709Z,100924.28
2023-02-23T00:37:23.291Z,100919.94
2023-02-23T00:40:25.243Z,100914.72
2023-02-23T00:43:28.223Z,100919.22
2023-02-23T00:46:30.720Z,100911.44
2023-02-23T00:49:32.795Z,100909.78
2023-02-23T00:52:34.371Z,100916.94
2023-02-23T00:55:35.918Z,100913.53
2023-02-23T00:58:37.839Z,100919.81
2023-02-23T01:01:41.974Z,100923.41
2023-02-23T01:04:43.651Z,100923.47
2023-02-23T01:07:46.496Z,100925.25
2023-02-23T01:10:53.106Z,100938.41
2023-02-23T01:13:57.027Z,100934.13
2023-02-23T01:16:59.046Z,100938.63
2023-02-23T01:20:00.588Z,100936.00
2023-02-23T01:23:03.599Z,100935.13
2023-02-23T01:26:05.188Z,100926.41
2023-02-23T01:29:15.267Z,100933.47
2023-02-23T01:32:16.953Z,100931.88
2023-02-23T01:35:18.722Z,100929.25
2023-02-23T01:38:20.265Z,100924.03
2023-02-23T01:41:22.312Z,100923.19
2023-02-23T01:44:26.615Z,100919.63
2023-02-23T01:47:28.172Z,100925.78
2023-02-23T01:50:50.761Z,100927.41
2023-02-23T01:53:57.576Z,100935.25
2023-02-23T01:57:02.669Z,100927.31
2023-02-23T02:00:12.960Z,100936.03
2023-02-23T02:03:23.899Z,100933.41
2023-02-23T02:06:30.057Z,100935.91
2023-02-23T02:09:37.869Z,100939.31
2023-02-23T02:12:41.548Z,100937.47
2023-02-23T02:16:05.985Z,100938.28
2023-02-23T02:19:33.720Z,100937.31
2023-02-23T02:22:41.730Z,100940.69
2023-02-23T02:25:55.179Z,100936.19
2023-02-23T02:29:21.390Z,100936.09
2023-02-23T02:32:40.518Z,100931.53
2023-02-23T02:36:28.138Z,100936.72
2023-02-23T02:39:36.660Z,100924.19
2023-02-23T02:42:45.199Z,100919.63
2023-02-23T02:46:02.122Z,100921.25
2023-02-23T02:49:12.199Z,100917.59
2023-02-23T02:52:28.883Z,100913.09
2023-02-23T02:55:37.129Z,100912.06
2023-02-23T02:58:39.289Z,100910.22
2023-02-23T03:01:59.567Z,100912.72
2023-02-23T03:05:19.934Z,100917.06
2023-02-23T03:09:01.577Z,100920.50
2023-02-23T03:12:35.080Z,100915.13
2023-02-23T03:16:18.494Z,100915.03
2023-02-23T03:19:47.738Z,100918.50
2023-02-23T03:23:29.548Z,100921.91
2023-02-23T03:27:23.431Z,100910.38
2023-02-23T03:31:00.456Z,100916.47
2023-02-23T03:34:37.265Z,100917.31
2023-02-23T03:38:04.264Z,100922.44
2023-02-23T03:41:27.199Z,100920.66
2023-02-23T03:44:54.899Z,100917.09
2023-02-23T03:48:18.614Z,100921.44
2023-02-23T03:51:42.124Z,100921.38
2023-02-23T03:55:12.601Z,100925.72
2023-02-23T03:58:36.507Z,100931.88
2023-02-23T04:01:57.902Z,100931.88
2023-02-23T04:05:21.044Z,100932.75
2023-02-23T04:08:46.426Z,100940.59
2023-02-23T04:12:15.192Z,100936.25
2023-02-23T04:15:32.363Z,100940.59
2023-02-23T04:18:36.694Z,100939.69
2023-02-23T04:21:38.714Z,100930.78
2023-02-23T04:24:40.523Z,100936.03
2023-02-23T04:27:42.079Z,100937.81
2023-02-23T04:30:43.975Z,100939.53
2023-02-23T04:33:45.548Z,100935.06
2023-02-23T04:36:47.182Z,100937.66
2023-02-23T04:39:50.214Z,100937.66
2023-02-23T04:42:52.427Z,100939.34
2023-02-23T04:45:54.198Z,100937.56
2023-02-23T04:48:55.907Z,100933.13
2023-02-23T04:51:57.499Z,100940.13
2023-02-23T04:54:59.074Z,100947.16
2023-02-23T04:58:02.098Z,100947.06
2023-02-23T05:01:06.477Z,100942.63
2023-02-23T05:04:08.017Z,100942.63
2023-02-23T05:07:09.551Z,100947.00
2023-02-23T05:10:11.660Z,100951.44
2023-02-23T05:13:13.183Z,100947.94
2023-02-23T05:16:14.763Z,100952.31
2023-02-23T05:19:16.455Z,100952.31
2023-02-23T05:22:18.054Z,100955.81
2023-02-23T05:25:19.608Z,100953.16
2023-02-23T05:28:21.873Z,100950.50
2023-02-23T05:31:24.959Z,100952.22
2023-02-23T05:34:27.212Z,100960.31
2023-02-23T05:37:28.830Z,100950.97
2023-02-23T05:40:30.812Z,100954.31
2023-02-23T05:43:32.378Z,100960.66
2023-02-23T05:46:34.005Z,100960.13
2023-02-23T05:49:35.581Z,100965.66
2023-02-23T05:52:41.540Z,100954.53
2023-02-23T05:55:43.147Z,100960.22
2023-02-23T05:58:44.677Z,100965.00
2023-02-23T06:01:46.463Z,100966.16
2023-02-23T06:04:48.032Z,100972.56
2023-02-23T06:07:49.584Z,100969.28
2023-02-23T06:10:51.425Z,100973.88
2023-02-23T06:13:53.024Z,100983.78
2023-02-23T06:16:55.342Z,100982.97
2023-02-23T06:19:57.074Z,100985.81
2023-02-23T06:22:58.623Z,100976.13
2023-02-23T06:26:00.250Z,100985.00
2023-02-23T06:29:02.081Z,100990.31
2023-02-23T06:32:04.606Z,100981.56
2023-02-23T06:35:07.345Z,100987.03
2023-02-23T06:38:09.322Z,100992.41
2023-02-23T06:41:11.659Z,100988.91
2023-02-23T06:44:13.211Z,100996.94
2023-02-23T06:47:14.764Z,100996.06
2023-02-23T06:50:16.678Z,101006.75
2023-02-23T06:53:18.455Z,100998.88
2023-02-23T06:56:20.052Z,101006.03
2023-02-23T06:59:21.682Z,101006.94
2023-02-23T07:02:23.258Z,101010.56
2023-02-23T07:05:24.778Z,101013.34
2023-02-23T07:08:26.637Z,101014.25
2023-02-23T07:11:28.178Z,101018.72
2023-02-23T07:14:29.779Z,101030.31
2023-02-23T07:17:31.708Z,101027.72
2023-02-23T07:20:33.675Z,101028.69
2023-02-23T07:23:35.315Z,101030.47
2023-02-23T07:26:36.865Z,101033.19
2023-02-23T07:29:38.386Z,101035.84
2023-02-23T07:32:40.273Z,101036.66
2023-02-23T07:35:43.107Z,101044.63
2023-02-23T07:38:44.679Z,101047.25
2023-02-23T07:41:46.259Z,101048.22
2023-02-23T07:44:47.916Z,101051.78
2023-02-23T07:47:49.466Z,101057.94
2023-02-23T07:50:51.048Z,101064.09
2023-02-23T07:53:52.629Z,101064.09
2023-02-23T07:56:54.193Z,101072.03
2023-02-23T07:59:55.770Z,101073.72
2023-02-23T08:02:57.319Z,101070.25
2023-02-23T08:05:58.871Z,101075.56
2023-02-23T08:09:01.278Z,101074.59
2023-02-23T08:12:03.365Z,101074.59
2023-02-23T08:15:08.248Z,101081.69
2023-02-23T08:18:10.441Z,101086.06
2023-02-23T08:21:12.073Z,101083.41
2023-02-23T08:24:14.107Z,101088.69
2023-02-23T08:27:15.736Z,101087.78
2023-02-23T08:30:19.200Z,101088.28
2023-02-23T08:33:21.132Z,101087.63
2023-02-23T08:36:22.780Z,101076.94
2023-02-23T08:39:24.304Z,101083.19
2023-02-23T08:42:25.908Z,101097.28
2023-02-23T08:45:29.359Z,101100.09
2023-02-23T08:48:30.922Z,101098.38
2023-02-23T08:51:35.130Z,101092.28
2023-02-23T08:54:36.694Z,101093.31
2023-02-23T08:57:38.237Z,101091.53
2023-02-23T09:00:39.842Z,101098.59
2023-02-23T09:03:41.485Z,101095.09
2023-02-23T09:06:43.051Z,101103.13
2023-02-23T09:09:44.688Z,101098.81
2023-02-23T09:12:46.270Z,101103.34
2023-02-23T09:15:48.136Z,101100.69
2023-02-23T09:18:49.839Z,101107.84
2023-02-23T09:21:51.545Z,101103.50
2023-02-23T09:24:53.554Z,101103.50
2023-02-23T09:27:59.866Z,101110.56
2023-02-23T09:31:10.286Z,101113.22
2023-02-23T09:34:12.735Z,101114.13
2023-02-23T09:37:14.613Z,101115.00
2023-02-23T09:40:25.079Z,101112.44
2023-02-23T09:43:45.149Z,101114.31
2023-02-23T09:46:52.597Z,101109.16
2023-02-23T09:49:56.354Z,101107.44
2023-02-23T09:53:39.412Z,101122.44
2023-02-23T09:56:49.818Z,101119.03
2023-02-23T09:59:51.678Z,101124.31
2023-02-23T10:03:24.193Z,101119.88
2023-02-23T10:06:26.833Z,101117.25
2023-02-23T10:09:44.475Z,101113.66
2023-02-23T10:13:10.624Z,101118.97
2023-02-23T10:16:24.435Z,101125.09
2023-02-23T10:19:42.951Z,101120.75
2023-02-23T10:22:48.177Z,101125.25
2023-02-23T10:25:53.459Z,101132.25
2023-02-23T10:28:58.683Z,101127.81
2023-02-23T10:32:05.275Z,101133.13
2023-02-23T10:35:19.324Z,101126.97
2023-02-23T10:38:21.145Z,101135.00
2023-02-23T10:41:23.438Z,101133.81
2023-02-23T10:44:27.499Z,101131.72
2023-02-23T10:47:36.262Z,101133.44
2023-02-23T10:50:39.325Z,101139.84
2023-02-23T10:53:40.882Z,101148.97
2023-02-23T10:56:47.009Z,101143.91
2023-02-23T11:00:18.254Z,101147.59
2023-02-23T11:03:27.689Z,101149.53
2023-02-23T11:06:36.168Z,101144.31
2023-02-23T11:09:46.614Z,101144.44
2023-02-23T11:12:49.806Z,101144.56
2023-02-23T11:16:10.438Z,101142.00
2023-02-23T11:19:24.336Z,101143.09
2023-02-23T11:22:27.133Z,101135.22
2023-02-23T11:25:31.881Z,101140.63
2023-02-23T11:28:41.132Z,101138.97
2023-02-23T11:31:49.689Z,101142.63
2023-02-23T11:35:13.234Z,101145.44
2023-02-23T11:38:27.548Z,101143.84
2023-02-23T11:41:31.785Z,101136.13
2023-02-23T11:44:33.696Z,101146.97
2023-02-23T11:47:40.499Z,101154.16
2023-02-23T11:50:47.434Z,101146.28
2023-02-23T11:53:49.004Z,101148.94
2023-02-23T11:56:55.418Z,101145.47
2023-02-23T11:59:59.453Z,101147.34
2023-02-23T12:03:03.339Z,101137.63
2023-02-23T12:06:05.257Z,101143.69
2023-02-23T12:09:19.509Z,101145.25
2023-02-23T12:12:25.464Z,101135.38
2023-02-23T12:15:40.122Z,101137.78
2023-02-23T12:19:00.278Z,101140.38
2023-02-23T12:22:12.318Z,101134.84
2023-02-23T12:25:27.054Z,101141.69
2023-02-23T12:28:45.981Z,101136.31
2023-02-23T12:32:03.073Z,101136.16
2023-02-23T12:35:15.119Z,101126.25
2023-02-23T12:38:35.381Z,101131.47
2023-02-23T12:41:43.251Z,101122.69
2023-02-23T12:44:51.739Z,101127.88
2023-02-23T12:48:00.983Z,101134.22
2023-02-23T12:51:12.559Z,101135.06
2023-02-23T12:54:16.567Z,101127.97
2023-02-23T12:57:24.626Z,101132.19
2023-02-23T13:00:45.523Z,101119.06
2023-02-23T13:04:15.647Z,101131.00
2023-02-23T13:07:35.565Z,101133.09
2023-02-23T13:11:02.685Z,101132.81
2023-02-23T13:14:29.796Z,101126.50
2023-02-23T13:17:56.262Z,101132.03
2023-02-23T13:21:10.181Z,101132.81
2023-02-23T13:24:16.480Z,101133.28
2023-02-23T13:27:43.200Z,101128.94
2023-02-23T13:30:47.586Z,101131.56
2023-02-23T13:33:49.739Z,101128.78
2023-02-23T13:36:52.310Z,101127.59
2023-02-23T13:40:12.672Z,101124.34
2023-02-23T13:43:23.433Z,101121.06
2023-02-23T13:46:45.836Z,101125.78
2023-02-23T13:50:10.203Z,101127.94
2023-02-23T13:53:47.024Z,101123.94
2023-02-23T13:56:53.166Z,101125.00
2023-02-23T13:59:55.142Z,101120.94
2023-02-23T14:02:56.965Z,101122.09
2023-02-23T14:06:00.949Z,101123.13
2023-02-23T14:09:13.387Z,101129.72
2023-02-23T14:12:19.444Z,101130.03
2023-02-23T14:15:25.050Z,101124.22
2023-02-23T14:18:32.230Z,101121.06
2023-02-23T14:21:42.859Z,101123.09
2023-02-23T14:24:44.443Z,101128.63
2023-02-23T14:27:46.019Z,101128.00
2023-02-23T14:30:58.799Z,101130.09
2023-02-23T14:34:00.889Z,101128.41
2023-02-23T14:37:34.801Z,101131.38
2023-02-23T14:40:42.593Z,101131.22
2023-02-23T14:43:45.629Z,101129.56
2023-02-23T14:46:57.089Z,101130.25
2023-02-23T14:50:01.503Z,101126.22
2023-02-23T14:53:06.425Z,101136.31
2023-02-23T14:56:18.862Z,101135.97
2023-02-23T14:59:27.029Z,101128.75
2023-02-23T15:02:30.434Z,101131.44
2023-02-23T15:05:36.902Z,101141.72
2023-02-23T15:08:44.990Z,101139.28
2023-02-23T15:11:49.974Z,101133.88
2023-02-23T15:14:51.536Z,101146.44
2023-02-23T15:17:56.073Z,101147.94
2023-02-23T15:20:57.729Z,101157.63
2023-02-23T15:24:10.758Z,101156.56
2023-02-23T15:27:22.875Z,101168.59
2023-02-23T15:30:27.735Z,101163.28
2023-02-23T15:33:30.319Z,101172.94
2023-02-23T15:36:35.032Z,101178.97
2023-02-23T15:39:43.065Z,101185.56
2023-02-23T15:42:47.751Z,101179.16
2023-02-23T15:45:54.655Z,101191.28
2023-02-23T15:49:03.310Z,101182.00
2023-02-23T15:52:38.717Z,101184.22
2023-02-23T15:55:43.698Z,101195.03
2023-02-23T15:58:56.375Z,101191.00
2023-02-23T16:02:00.259Z,101194.84
2023-02-23T16:05:15.052Z,101203.22
2023-02-23T16:08:24.367Z,101210.63
2023-02-23T16:11:30.847Z,101209.19
2023-02-23T16:14:48.696Z,101206.00
2023-02-23T16:18:07.152Z,101209.84
2023-02-23T16:21:17.225Z,101215.28
2023-02-23T16:24:22.854Z,101218.19
2023-02-23T16:27:26.217Z,101209.50
2023-02-23T16:31:00.459Z,101212.34
2023-02-23T16:34:03.432Z,101220.50
2023-02-23T16:37:18.077Z,101220.59
2023-02-23T16:40:19.689Z,101218.25
2023-02-23T16:43:21.600Z,101226.53
2023-02-23T16:46:28.711Z,101228.50
2023-02-23T16:49:31.351Z,101223.34
2023-02-23T16:52:33.054Z,101224.44
2023-02-23T16:55:39.352Z,101222.78
2023-02-23T16:58:47.426Z,101221.25
2023-02-23T17:01:50.022Z,101216.81
2023-02-23T17:04:51.817Z,101213.75
2023-02-23T17:07:53.856Z,101212.16
2023-02-23T17:10:57.346Z,101228.34
2023-02-23T17:13:58.934Z,101234.72
2023-02-23T17:17:00.564Z,101226.13
2023-02-23T17:20:02.149Z,101229.88
2023-02-23T17:23:04.090Z,101230.94
2023-02-23T17:26:07.338Z,101232.94
2023-02-23T17:29:09.034Z,101231.34
2023-02-23T17:32:10.818Z,101229.75
2023-02-23T17:35:12.722Z,101230.75
2023-02-23T17:38:15.010Z,101234.28
2023-02-23T17:41:18.880Z,101235.19
2023-02-23T17:44:20.605Z,101237.03
2023-02-23T17:47:22.163Z,101233.53
2023-02-23T17:50:26.405Z,101228.41
2023-02-23T17:53:29.637Z,101229.22
2023-02-23T17:56:31.727Z,101223.13
2023-02-23T17:59:33.337Z,101222.25
2023-02-23T18:02:34.904Z,101226.66
2023-02-23T18:05:36.709Z,101224.03
2023-02-23T18:08:40.426Z,101225.75
2023-02-23T18:11:42.020Z,101224.81
2023-02-23T18:14:43.729Z,101218.66
2023-02-23T18:17:45.265Z,101230.16
2023-02-23T18:20:55.037Z,101225.78
2023-02-23T18:23:56.602Z,101224.09
2023-02-23T18:27:01.794Z,101220.63
2023-02-23T18:30:04.090Z,101233.03
2023-02-23T18:33:06.793Z,101228.75
2023-02-23T18:36:21.249Z,101233.22
2023-02-23T18:39:22.982Z,101222.63
2023-02-23T18:42:24.982Z,101217.38
2023-02-23T18:45:27.569Z,101223.63
2023-02-23T18:48:29.141Z,101225.56
2023-02-23T18:51:30.697Z,101223.03
2023-02-23T18:54:32.264Z,101223.13
2023-02-23T18:57:33.807Z,101222.38
2023-02-23T19:00:40.131Z,101224.22
2023-02-23T19:03:45.056Z,101224.34
2023-02-23T19:06:47.313Z,101222.66
2023-02-23T19:09:48.845Z,101213.94
2023-02-23T19:12:50.463Z,101206.97
2023-02-23T19:15:53.506Z,101205.16
2023-02-23T19:18:55.200Z,101217.53
2023-02-23T19:21:58.741Z,101217.53
2023-02-23T19:25:00.254Z,101213.16
2023-02-23T19:28:02.593Z,101214.09
2023-02-23T19:31:06.633Z,101220.34
2023-02-23T19:34:08.986Z,101217.81
2023-02-23T19:37:10.849Z,101203.94
2023-02-23T19:40:14.049Z,101210.22
2023-02-23T19:43:15.670Z,101211.28
2023-02-23T19:46:17.560Z,101205.31
2023-02-23T19:49:19.106Z,101208.00
2023-02-23T19:52:20.716Z,101209.94
2023-02-23T19:55:22.459Z,101209.19
2023-02-23T19:58:27.171Z,101216.38
2023-02-23T20:01:29.959Z,101219.22
2023-02-23T20:04:31.550Z,101215.84
2023-02-23T20:07:33.065Z,101216.06
2023-02-23T20:10:34.791Z,101216.28
2023-02-23T20:13:39.006Z,101219.97
2023-02-23T20:16:41.201Z,101215.66
2023-02-23T20:19:42.776Z,101215.75
2023-02-23T20:22:45.063Z,101217.69
2023-02-23T20:25:48.330Z,101219.63
2023-02-23T20:28:51.740Z,101229.38
2023-02-23T20:31:53.518Z,101227.69
2023-02-23T20:34:55.151Z,101226.84
2023-02-23T20:37:56.680Z,101230.38
2023-02-23T20:40:58.792Z,101227.72
2023-02-23T20:44:01.405Z,101228.59
2023-02-23T20:47:03.186Z,101218.13
2023-02-23T20:50:06.327Z,101213.75
2023-02-23T20:53:08.722Z,101207.63
2023-02-23T20:56:10.322Z,101197.94
2023-02-23T20:59:12.832Z,101197.03
2023-02-23T21:02:15.338Z,101197.13
2023-02-23T21:05:17.167Z,101197.16
2023-02-23T21:08:19.710Z,101196.44
2023-02-23T21:11:25.116Z,101189.59
2023-02-23T21:14:26.874Z,101199.41
2023-02-23T21:17:28.467Z,101203.13
2023-02-23T21:20:30.259Z,101199.78
2023-02-23T21:23:31.893Z,101202.53
2023-02-23T21:26:33.639Z,101196.56
2023-02-23T21:29:35.170Z,101204.63
2023-02-23T21:32:41.386Z,101200.34
2023-02-23T21:35:43.255Z,101195.16
2023-02-23T21:38:45.402Z,101195.22
2023-02-23T21:41:46.976Z,101188.28
2023-02-23T21:44:48.587Z,101190.06
2023-02-23T21:47:50.457Z,101186.53
2023-02-23T21:50:52.182Z,101183.91
2023-02-23T21:53:58.013Z,101180.44
2023-02-23T21:56:59.547Z,101187.41
2023-02-23T22:00:01.138Z,101176.88
2023-02-23T22:03:03.422Z,101183.88
2023-02-23T22:06:05.275Z,101177.69
2023-02-23T22:09:10.929Z,101172.38
2023-02-23T22:12:12.571Z,101175.91
2023-02-23T22:15:15.925Z,101176.78
2023-02-23T22:18:17.830Z,101166.25
2023-02-23T22:21:19.951Z,101166.25
2023-02-23T22:24:21.726Z,101167.13
2023-02-23T22:27:23.279Z,101161.06
2023-02-23T22:30:25.922Z,101154.06
2023-02-23T22:33:27.476Z,101154.91
2023-02-23T22:36:29.442Z,101153.19
2023-02-23T22:39:33.742Z,101144.31
2023-02-23T22:42:35.414Z,101137.38
2023-02-23T22:45:38.152Z,101137.38
2023-02-23T22:48:44.842Z,101123.31
2023-02-23T22:51:46.438Z,101113.69
2023-02-23T22:54:48.086Z,101112.38
2023-02-23T22:57:49.659Z,101114.19
2023-02-23T23:01:03.590Z,101109.63
2023-02-23T23:04:12.441Z,101107.88
2023-02-23T23:07:14.088Z,101099.09
2023-02-23T23:10:17.757Z,101097.25
2023-02-23T23:13:19.529Z,101087.59
2023-02-23T23:16:31.446Z,101083.00
2023-02-23T23:19:39.271Z,101085.69
2023-02-23T23:22:40.876Z,101084.00
2023-02-23T23:25:46.502Z,101086.78
2023-02-23T23:28:53.258Z,101079.00
2023-02-23T23:31:57.227Z,101072.16
2023-02-23T23:35:01.091Z,101068.75
2023-02-23T23:38:03.119Z,101061.94
2023-02-23T23:41:10.196Z,101059.44
2023-02-23T23:44:13.280Z,101059.50
2023-02-23T23:47:15.145Z,101051.72
2023-02-23T23:50:17.409Z,101042.16
2023-02-23T23:53:19.702Z,101053.66
2023-02-23T23:56:21.671Z,101037.97
2023-02-23T23:59:26.793Z,101044.16
